Time;durP1;ratioP1;P1;durP2;ratioP2;P2;SDS_P1;SDS_P2;PMS_P1;PMS_P2;Temp;Humidity;BMP_temperature;BMP_pressure;BME280_temperature;BME280_humidity;BME280_pressure;Samples;Min_cycle;Max_cycle;Signal;HPM_P1;HPM_P2
2022/08/19 00:00:51;;;;;;;13.80;12.25;;;;;;;;;;5061346;28;20225;-88
2022/08/19 00:03:18;;;;;;;14.23;12.75;;;;;;;;;;5073412;28;20233;-87
2022/08/19 00:05:46;;;;;;;13.73;11.80;;;;;;;;;;5073349;28;20253;-87
2022/08/19 00:08:13;;;;;;;13.23;11.57;;;;;;;;;;5059857;28;20210;-87
2022/08/19 00:10:40;;;;;;;13.00;11.70;;;;;;;;;;5052954;28;20237;-88
2022/08/19 00:13:07;;;;;;;13.65;12.25;;;;;;;;;;5053315;28;20212;-88
2022/08/19 00:15:34;;;;;;;13.85;12.18;;;;;;;;;;5057466;28;20233;-89
2022/08/19 00:18:02;;;;;;;13.75;12.35;;;;;;;;;;5065374;28;20604;-87
2022/08/19 00:23:49;;;;;;;13.70;12.25;;;;;;;;;;5053219;28;20272;-87
2022/08/19 00:26:16;;;;;;;13.75;12.32;;;;;;;;;;5052438;28;20233;-88
2022/08/19 00:28:43;;;;;;;15.23;13.10;;;;;;;;;;5054851;28;20206;-88
2022/08/19 00:31:10;;;;;;;13.65;12.20;;;;;;;;;;5053041;28;20245;-88
2022/08/19 00:33:39;;;;;;;14.57;12.32;;;;;;;;;;5065484;28;20205;-88
2022/08/19 00:36:07;;;;;;;15.30;12.90;;;;;;;;;;5065792;28;20233;-87
2022/08/19 00:38:34;;;;;;;13.48;12.02;;;;;;;;;;5073009;22;20227;-82
2022/08/19 00:41:01;;;;;;;14.00;12.02;;;;;;;;;;5047662;28;20237;-82
2022/08/19 00:43:29;;;;;;;16.15;12.68;;;;;;;;;;5049382;28;20233;-81
2022/08/19 00:45:56;;;;;;;15.23;12.50;;;;;;;;;;5037578;28;20237;-82
2022/08/19 00:48:24;;;;;;;16.13;12.18;;;;;;;;;;5029214;28;20231;-82
2022/08/19 00:50:54;;;;;;;13.77;12.30;;;;;;;;;;5027773;28;20289;-82
2022/08/19 00:53:23;;;;;;;14.23;12.73;;;;;;;;;;5028204;28;20192;-82
2022/08/19 00:55:51;;;;;;;17.38;12.45;;;;;;;;;;5018708;28;20715;-81
2022/08/19 00:58:20;;;;;;;14.77;13.18;;;;;;;;;;5015638;28;20227;-82
2022/08/19 01:00:47;;;;;;;14.60;13.05;;;;;;;;;;5011268;28;20614;-81
2022/08/19 01:03:16;;;;;;;15.70;13.02;;;;;;;;;;5011745;28;20200;-82
2022/08/19 01:05:44;;;;;;;16.38;12.73;;;;;;;;;;5010990;28;20243;-82
2022/08/19 01:08:13;;;;;;;13.27;11.85;;;;;;;;;;5007289;28;20596;-80
2022/08/19 01:10:42;;;;;;;15.73;12.57;;;;;;;;;;5013205;28;20246;-82
2022/08/19 01:13:09;;;;;;;14.73;12.82;;;;;;;;;;5013500;28;20219;-82
2022/08/19 01:15:39;;;;;;;13.80;12.38;;;;;;;;;;5012228;28;20235;-82
2022/08/19 01:18:08;;;;;;;16.88;12.27;;;;;;;;;;5015761;28;20235;-82
2022/08/19 01:20:35;;;;;;;15.55;12.48;;;;;;;;;;5012344;28;20235;-82
2022/08/19 01:23:04;;;;;;;12.68;11.32;;;;;;;;;;5013016;28;20203;-82
2022/08/19 01:25:33;;;;;;;14.00;11.80;;;;;;;;;;5015515;28;20230;-82
2022/08/19 01:28:00;;;;;;;14.57;12.55;;;;;;;;;;5013316;28;20242;-82
2022/08/19 01:30:30;;;;;;;13.35;11.77;;;;;;;;;;5011735;28;20246;-82
2022/08/19 01:32:58;;;;;;;15.50;12.07;;;;;;;;;;5016237;28;20607;-82
2022/08/19 01:35:26;;;;;;;14.15;12.32;;;;;;;;;;5017503;28;20312;-82
2022/08/19 01:37:55;;;;;;;13.00;11.57;;;;;;;;;;5016113;28;20318;-82
2022/08/19 01:40:24;;;;;;;13.98;12.00;;;;;;;;;;5020404;28;20246;-82
2022/08/19 01:42:52;;;;;;;15.52;12.00;;;;;;;;;;5021193;28;20226;-82
2022/08/19 01:45:20;;;;;;;13.90;11.95;;;;;;;;;;5018030;28;20239;-82
2022/08/19 01:47:48;;;;;;;13.40;11.60;;;;;;;;;;5018455;28;20238;-82
2022/08/19 01:50:15;;;;;;;15.65;11.95;;;;;;;;;;5020639;28;20239;-82
2022/08/19 01:52:43;;;;;;;13.88;11.90;;;;;;;;;;5020838;28;20203;-82
2022/08/19 01:55:12;;;;;;;14.90;12.00;;;;;;;;;;5019768;28;20239;-83
2022/08/19 01:57:41;;;;;;;13.70;12.10;;;;;;;;;;5017943;28;20627;-82
2022/08/19 02:00:11;;;;;;;14.90;12.15;;;;;;;;;;5017450;28;20242;-82
2022/08/19 02:02:38;;;;;;;14.15;12.27;;;;;;;;;;5016375;28;20222;-82
2022/08/19 02:05:06;;;;;;;13.38;11.48;;;;;;;;;;5015950;28;20660;-83
2022/08/19 02:07:33;;;;;;;14.70;12.77;;;;;;;;;;5017009;28;20228;-83
2022/08/19 02:10:03;;;;;;;13.90;12.40;;;;;;;;;;5017461;28;20234;-83
2022/08/19 02:12:30;;;;;;;15.05;12.65;;;;;;;;;;5017750;28;20203;-81
2022/08/19 02:14:58;;;;;;;17.90;11.75;;;;;;;;;;5020121;28;20605;-83
2022/08/19 02:17:25;;;;;;;16.13;12.40;;;;;;;;;;5014410;28;20821;-83
2022/08/19 02:19:52;;;;;;;14.52;11.57;;;;;;;;;;5013546;28;20203;-84
2022/08/19 02:22:19;;;;;;;15.30;11.68;;;;;;;;;;5013685;28;20207;-83
2022/08/19 02:24:47;;;;;;;13.27;11.85;;;;;;;;;;5013219;28;20226;-84
2022/08/19 02:27:14;;;;;;;14.60;12.43;;;;;;;;;;5013969;28;20631;-83
2022/08/19 02:29:41;;;;;;;15.00;12.32;;;;;;;;;;5013511;28;20207;-84
2022/08/19 02:32:10;;;;;;;17.55;12.90;;;;;;;;;;5013255;28;20203;-83
2022/08/19 02:34:37;;;;;;;15.48;12.68;;;;;;;;;;5013562;28;20200;-83
2022/08/19 02:38:25;;;;;;;15.48;12.50;;;;;;;;;;5013359;28;20741;-82
2022/08/19 02:39:59;;;;;;;18.63;12.40;;;;;;;;;;5012809;28;20310;-83
2022/08/19 02:42:27;;;;;;;14.60;13.10;;;;;;;;;;5013540;28;20206;-83
2022/08/19 02:44:55;;;;;;;15.85;12.73;;;;;;;;;;5013134;28;20216;-84
2022/08/19 02:47:23;;;;;;;16.48;12.57;;;;;;;;;;5013653;28;20265;-83
2022/08/19 02:49:50;;;;;;;17.90;12.32;;;;;;;;;;5012493;28;20207;-83
2022/08/19 02:52:17;;;;;;;16.75;12.98;;;;;;;;;;5012953;28;20573;-84
2022/08/19 02:54:45;;;;;;;14.65;12.40;;;;;;;;;;5013063;28;20207;-83
2022/08/19 02:57:12;;;;;;;17.33;13.07;;;;;;;;;;5013031;28;20285;-83
2022/08/19 02:59:39;;;;;;;15.15;13.18;;;;;;;;;;5012521;28;20208;-83
2022/08/19 03:02:06;;;;;;;18.40;13.60;;;;;;;;;;5012845;28;20211;-84
2022/08/19 03:04:35;;;;;;;16.15;13.75;;;;;;;;;;5012862;28;20621;-83
2022/08/19 03:07:02;;;;;;;16.73;13.77;;;;;;;;;;5012941;28;20727;-83
2022/08/19 03:09:29;;;;;;;14.95;12.50;;;;;;;;;;5012920;28;20204;-84
2022/08/19 03:11:56;;;;;;;16.30;13.15;;;;;;;;;;5012459;28;20230;-83
2022/08/19 03:14:24;;;;;;;15.07;13.02;;;;;;;;;;5013152;28;20609;-84
2022/08/19 03:16:52;;;;;;;15.55;13.80;;;;;;;;;;5012326;28;20232;-83
2022/08/19 03:19:21;;;;;;;15.95;14.15;;;;;;;;;;5013163;28;20203;-83
2022/08/19 03:21:49;;;;;;;14.77;12.95;;;;;;;;;;5011981;28;20231;-83
2022/08/19 03:24:17;;;;;;;16.98;13.98;;;;;;;;;;5013025;28;20227;-84
2022/08/19 03:26:45;;;;;;;15.95;13.02;;;;;;;;;;5012297;28;20255;-83
2022/08/19 03:29:12;;;;;;;16.52;13.32;;;;;;;;;;5012697;28;20203;-84
2022/08/19 03:31:40;;;;;;;15.95;12.80;;;;;;;;;;5011999;28;20239;-84
2022/08/19 03:34:07;;;;;;;15.55;12.90;;;;;;;;;;5012382;28;20196;-84
2022/08/19 03:36:34;;;;;;;17.25;13.48;;;;;;;;;;5011954;28;20227;-83
2022/08/19 03:39:03;;;;;;;14.38;12.55;;;;;;;;;;5012291;28;20199;-83
2022/08/19 03:41:31;;;;;;;19.33;14.30;;;;;;;;;;5014078;28;20245;-82
2022/08/19 03:43:58;;;;;;;15.55;13.52;;;;;;;;;;5015247;28;20208;-83
2022/08/19 03:46:26;;;;;;;17.65;13.73;;;;;;;;;;5014539;28;20234;-82
2022/08/19 03:48:54;;;;;;;17.02;13.63;;;;;;;;;;5015547;28;20203;-83
2022/08/19 03:51:22;;;;;;;16.67;13.38;;;;;;;;;;5020495;28;20235;-82
2022/08/19 03:53:49;;;;;;;17.80;13.32;;;;;;;;;;5030275;28;20208;-82
2022/08/19 03:56:17;;;;;;;17.90;13.43;;;;;;;;;;5029802;28;20238;-82
2022/08/19 03:58:45;;;;;;;16.65;12.88;;;;;;;;;;5020789;28;20230;-83
2022/08/19 04:01:13;;;;;;;17.92;13.93;;;;;;;;;;5012660;28;20231;-82
2022/08/19 04:03:40;;;;;;;17.00;13.23;;;;;;;;;;5012593;28;20200;-83
2022/08/19 04:06:13;;;;;;;18.70;14.38;;;;;;;;;;5011640;28;20253;-82
2022/08/19 04:08:40;;;;;;;21.33;14.65;;;;;;;;;;5023164;28;20640;-83
2022/08/19 04:11:08;;;;;;;15.93;13.13;;;;;;;;;;5012605;28;20262;-83
2022/08/19 04:13:37;;;;;;;18.70;14.05;;;;;;;;;;5012906;28;20286;-83
2022/08/19 04:16:05;;;;;;;17.00;13.43;;;;;;;;;;5041681;28;20260;-84
2022/08/19 04:18:32;;;;;;;16.27;13.85;;;;;;;;;;5017307;28;20254;-84
2022/08/19 04:21:00;;;;;;;17.08;13.23;;;;;;;;;;5019628;28;20223;-84
2022/08/19 04:23:28;;;;;;;17.80;13.40;;;;;;;;;;4998619;28;20637;-84
2022/08/19 04:25:55;;;;;;;14.77;12.60;;;;;;;;;;5013503;28;20270;-84
2022/08/19 04:28:23;;;;;;;17.83;12.63;;;;;;;;;;5012306;28;20222;-84
2022/08/19 04:30:53;;;;;;;16.75;13.00;;;;;;;;;;5026773;28;20238;-84
2022/08/19 04:33:22;;;;;;;16.45;13.48;;;;;;;;;;5031210;28;20203;-83
2022/08/19 04:35:50;;;;;;;17.13;13.95;;;;;;;;;;5021197;28;20270;-82
2022/08/19 04:38:18;;;;;;;16.48;14.07;;;;;;;;;;4992753;28;20590;-82
2022/08/19 04:43:32;;;;;;;16.67;13.32;;;;;;;;;;5013269;28;20218;-82
2022/08/19 04:46:05;;;;;;;16.30;12.82;;;;;;;;;;5017668;28;20254;-83
2022/08/19 04:48:33;;;;;;;15.50;13.43;;;;;;;;;;5026024;28;20257;-83
2022/08/19 04:51:02;;;;;;;16.50;13.23;;;;;;;;;;5030940;28;20317;-83
2022/08/19 04:53:30;;;;;;;16.70;13.15;;;;;;;;;;5012566;28;20261;-84
2022/08/19 04:55:57;;;;;;;16.80;12.52;;;;;;;;;;5012201;28;20239;-85
2022/08/19 04:58:25;;;;;;;15.95;12.65;;;;;;;;;;5012744;28;20227;-84
2022/08/19 05:00:52;;;;;;;18.55;13.30;;;;;;;;;;5021817;28;20250;-85
2022/08/19 05:03:21;;;;;;;14.73;12.23;;;;;;;;;;5021632;28;20202;-85
2022/08/19 05:05:49;;;;;;;14.90;12.13;;;;;;;;;;5022327;28;20238;-85
2022/08/19 05:08:19;;;;;;;14.50;12.63;;;;;;;;;;5026460;28;20230;-85
2022/08/19 05:10:47;;;;;;;16.98;13.52;;;;;;;;;;5023683;28;20234;-83
2022/08/19 05:13:14;;;;;;;17.15;12.18;;;;;;;;;;5018867;28;20206;-84
2022/08/19 05:15:41;;;;;;;16.33;12.02;;;;;;;;;;5013559;28;20726;-84
2022/08/19 05:23:40;;;;;;;16.70;12.07;;;;;;;;;;5017686;28;20281;-81
2022/08/19 05:26:09;;;;;;;13.63;11.82;;;;;;;;;;5021851;28;20291;-81
2022/08/19 05:28:36;;;;;;;14.75;12.57;;;;;;;;;;5025932;28;20242;-82
2022/08/19 05:31:03;;;;;;;15.02;11.98;;;;;;;;;;5035219;28;20245;-82
2022/08/19 05:33:31;;;;;;;14.55;11.68;;;;;;;;;;5038139;28;20211;-82
2022/08/19 05:36:00;;;;;;;16.65;11.52;;;;;;;;;;5041520;28;20238;-82
2022/08/19 05:38:27;;;;;;;17.17;11.50;;;;;;;;;;5017657;28;20239;-82
2022/08/19 05:40:54;;;;;;;16.55;11.32;;;;;;;;;;5013822;28;20242;-82
2022/08/19 05:43:21;;;;;;;15.77;11.35;;;;;;;;;;5016088;28;20215;-82
2022/08/19 05:45:50;;;;;;;14.95;11.32;;;;;;;;;;5015781;28;20293;-82
2022/08/19 05:48:20;;;;;;;14.98;12.18;;;;;;;;;;5024241;28;20251;-81
2022/08/19 05:50:50;;;;;;;13.77;12.13;;;;;;;;;;5035640;28;20722;-82
2022/08/19 05:53:18;;;;;;;15.02;11.32;;;;;;;;;;5019310;28;20200;-81
2022/08/19 05:55:45;;;;;;;18.27;12.85;;;;;;;;;;5001435;28;20231;-81
2022/08/19 05:58:12;;;;;;;15.57;12.68;;;;;;;;;;5016580;28;20231;-81
2022/08/19 06:00:40;;;;;;;19.35;14.20;;;;;;;;;;5025628;28;20668;-83
2022/08/19 06:03:07;;;;;;;16.15;12.98;;;;;;;;;;5017985;28;20231;-81
2022/08/19 06:05:34;;;;;;;17.27;12.60;;;;;;;;;;5017078;28;20243;-80
2022/08/19 06:08:02;;;;;;;20.42;12.90;;;;;;;;;;5016623;28;20227;-82
2022/08/19 06:10:30;;;;;;;16.42;13.55;;;;;;;;;;5014963;28;20242;-81
2022/08/19 06:12:57;;;;;;;14.85;12.30;;;;;;;;;;5019030;28;20203;-81
2022/08/19 06:15:27;;;;;;;15.48;12.65;;;;;;;;;;5013792;28;20234;-82
2022/08/19 06:17:54;;;;;;;14.60;11.63;;;;;;;;;;5034845;28;20226;-83
2022/08/19 06:20:22;;;;;;;11.82;10.60;;;;;;;;;;5035201;28;20235;-82
2022/08/19 06:22:51;;;;;;;12.98;10.73;;;;;;;;;;5035289;28;20214;-80
2022/08/19 06:25:18;;;;;;;17.75;11.15;;;;;;;;;;5034034;28;20238;-82
2022/08/19 06:27:46;;;;;;;12.05;10.82;;;;;;;;;;5024942;28;20589;-82
2022/08/19 06:30:14;;;;;;;12.88;10.35;;;;;;;;;;5015837;28;20246;-81
2022/08/19 06:32:41;;;;;;;13.68;10.60;;;;;;;;;;5011835;28;20203;-81
2022/08/19 06:35:09;;;;;;;14.65;10.88;;;;;;;;;;5014780;28;20719;-81
2022/08/19 06:37:37;;;;;;;13.23;10.82;;;;;;;;;;5015791;28;20226;-81
2022/08/19 06:40:05;;;;;;;11.13;9.63;;;;;;;;;;5014692;28;20237;-81
2022/08/19 06:42:32;;;;;;;12.27;9.98;;;;;;;;;;5016635;28;20208;-81
2022/08/19 06:45:02;;;;;;;13.27;10.40;;;;;;;;;;5014588;28;20310;-81
2022/08/19 06:47:30;;;;;;;10.95;9.82;;;;;;;;;;5015744;28;20223;-81
2022/08/19 06:50:00;;;;;;;14.30;10.48;;;;;;;;;;5015968;28;20242;-81
2022/08/19 06:52:27;;;;;;;12.88;9.85;;;;;;;;;;5015275;28;20203;-81
2022/08/19 06:54:55;;;;;;;11.18;9.25;;;;;;;;;;5015165;28;20223;-81
2022/08/19 06:57:23;;;;;;;13.15;9.10;;;;;;;;;;5015613;28;20228;-81
2022/08/19 06:59:50;;;;;;;10.75;9.73;;;;;;;;;;5009343;28;20305;-81
2022/08/19 07:02:18;;;;;;;12.55;9.55;;;;;;;;;;5015826;28;20786;-82
2022/08/19 07:04:45;;;;;;;12.27;9.10;;;;;;;;;;5014622;28;20211;-82
2022/08/19 07:07:13;;;;;;;11.30;9.35;;;;;;;;;;5016810;28;20224;-81
2022/08/19 07:09:42;;;;;;;12.70;9.70;;;;;;;;;;5015937;28;20215;-82
2022/08/19 07:12:10;;;;;;;10.82;9.60;;;;;;;;;;5014786;28;20294;-82
2022/08/19 07:14:37;;;;;;;10.38;9.35;;;;;;;;;;5014289;28;20266;-83
2022/08/19 07:17:05;;;;;;;10.73;9.02;;;;;;;;;;5014421;28;20223;-81
2022/08/19 07:19:34;;;;;;;13.25;9.15;;;;;;;;;;5019121;28;20191;-81
2022/08/19 07:22:03;;;;;;;10.80;8.68;;;;;;;;;;5013803;28;20231;-83
2022/08/19 07:24:30;;;;;;;11.52;8.75;;;;;;;;;;5014661;28;20207;-82
2022/08/19 07:27:00;;;;;;;13.98;9.27;;;;;;;;;;5012280;28;20314;-82
2022/08/19 07:29:27;;;;;;;10.07;8.65;;;;;;;;;;5013227;28;20335;-81
2022/08/19 07:31:55;;;;;;;9.85;8.85;;;;;;;;;;5012103;28;20238;-82
2022/08/19 07:34:23;;;;;;;11.68;8.48;;;;;;;;;;5014666;28;20222;-82
2022/08/19 07:36:51;;;;;;;16.77;8.60;;;;;;;;;;5013588;28;20234;-82
2022/08/19 07:39:20;;;;;;;11.65;8.07;;;;;;;;;;5014615;28;20230;-83
2022/08/19 07:41:47;;;;;;;12.15;8.38;;;;;;;;;;5013757;28;20231;-82
2022/08/19 07:44:15;;;;;;;10.35;8.05;;;;;;;;;;5015089;28;20211;-82
2022/08/19 07:46:46;;;;;;;9.27;7.50;;;;;;;;;;5013581;28;20251;-82
2022/08/19 07:49:19;;;;;;;8.77;7.95;;;;;;;;;;5013476;28;20298;-82
2022/08/19 07:51:46;;;;;;;11.50;8.10;;;;;;;;;;5011832;28;20231;-82
2022/08/19 07:54:14;;;;;;;10.98;7.47;;;;;;;;;;5011605;28;20215;-83
2022/08/19 07:56:41;;;;;;;8.35;7.40;;;;;;;;;;5020133;28;20227;-83
2022/08/19 07:59:09;;;;;;;8.30;7.43;;;;;;;;;;5027847;28;20219;-84
2022/08/19 08:01:36;;;;;;;8.60;7.60;;;;;;;;;;5026107;28;20227;-83
2022/08/19 08:09:36;;;;;;;9.32;7.15;;;;;;;;;;4993513;28;20679;-85
2022/08/19 08:12:05;;;;;;;13.32;7.22;;;;;;;;;;4993178;28;20219;-84
2022/08/19 08:14:34;;;;;;;9.55;6.47;;;;;;;;;;4994000;28;20211;-82
2022/08/19 08:17:02;;;;;;;7.13;6.43;;;;;;;;;;4993428;28;20228;-81
2022/08/19 08:19:30;;;;;;;6.20;5.68;;;;;;;;;;4994176;28;20224;-81
2022/08/19 08:21:58;;;;;;;7.15;5.78;;;;;;;;;;4992454;28;20267;-81
2022/08/19 08:24:25;;;;;;;6.10;5.25;;;;;;;;;;5012132;28;20196;-82
2022/08/19 08:26:53;;;;;;;11.13;5.53;;;;;;;;;;5051253;22;20230;-83
2022/08/19 08:29:22;;;;;;;5.30;4.75;;;;;;;;;;5032703;28;20693;-82
2022/08/19 08:31:49;;;;;;;5.63;5.00;;;;;;;;;;5069260;28;20277;-82
2022/08/19 08:34:16;;;;;;;7.18;5.30;;;;;;;;;;5073076;28;20202;-82
2022/08/19 08:36:45;;;;;;;6.80;4.30;;;;;;;;;;5071919;28;20244;-82
2022/08/19 08:39:13;;;;;;;6.07;5.47;;;;;;;;;;5072635;28;20209;-83
2022/08/19 08:41:46;;;;;;;5.88;4.93;;;;;;;;;;5073328;28;20256;-82
2022/08/19 08:44:18;;;;;;;7.72;4.63;;;;;;;;;;5076980;28;20189;-83
2022/08/19 08:46:48;;;;;;;5.38;4.18;;;;;;;;;;5064896;28;20318;-83
2022/08/19 08:49:20;;;;;;;5.70;5.20;;;;;;;;;;5056651;28;20228;-82
2022/08/19 08:51:50;;;;;;;5.03;4.57;;;;;;;;;;5055551;28;20257;-82
2022/08/19 08:54:19;;;;;;;4.95;4.22;;;;;;;;;;5056624;28;20553;-82
2022/08/19 08:56:48;;;;;;;5.90;4.68;;;;;;;;;;5055743;28;20236;-83
2022/08/19 08:59:20;;;;;;;5.55;4.88;;;;;;;;;;5056228;28;20205;-82
2022/08/19 09:01:48;;;;;;;7.03;4.68;;;;;;;;;;5055723;28;20241;-83
2022/08/19 09:04:15;;;;;;;3.92;3.60;;;;;;;;;;5056473;28;20276;-82
2022/08/19 09:06:51;;;;;;;5.47;3.92;;;;;;;;;;5055420;28;20234;-82
2022/08/19 09:09:20;;;;;;;5.15;3.75;;;;;;;;;;5055784;28;20201;-82
2022/08/19 09:11:56;;;;;;;4.68;4.13;;;;;;;;;;5054755;28;20238;-83
2022/08/19 09:14:32;;;;;;;4.43;4.03;;;;;;;;;;5055815;28;20190;-83
2022/08/19 09:17:03;;;;;;;4.43;3.58;;;;;;;;;;5055665;28;20244;-82
2022/08/19 09:19:30;;;;;;;3.85;3.47;;;;;;;;;;5068493;28;20197;-84
2022/08/19 09:22:00;;;;;;;5.07;3.80;;;;;;;;;;5067088;27;20237;-83
2022/08/19 09:24:27;;;;;;;4.90;3.67;;;;;;;;;;5057355;28;20194;-83
2022/08/19 09:26:54;;;;;;;5.03;3.30;;;;;;;;;;5055012;28;20702;-83
2022/08/19 09:29:21;;;;;;;3.90;3.53;;;;;;;;;;5055869;28;20214;-83
2022/08/19 09:31:50;;;;;;;3.80;3.50;;;;;;;;;;5073005;28;20236;-83
2022/08/19 09:34:19;;;;;;;3.88;3.50;;;;;;;;;;5075801;28;20240;-84
2022/08/19 09:36:46;;;;;;;3.33;3.05;;;;;;;;;;5078436;28;20279;-83
2022/08/19 09:39:13;;;;;;;4.35;3.13;;;;;;;;;;5055249;28;20594;-83
2022/08/19 09:41:41;;;;;;;3.10;2.83;;;;;;;;;;5054901;28;20256;-84
2022/08/19 09:44:11;;;;;;;3.63;3.22;;;;;;;;;;5074960;28;20221;-83
2022/08/19 09:46:38;;;;;;;4.75;3.38;;;;;;;;;;5059160;28;20261;-82
2022/08/19 09:49:07;;;;;;;3.33;3.10;;;;;;;;;;5056353;28;20686;-82
2022/08/19 09:51:34;;;;;;;4.85;3.25;;;;;;;;;;5056784;28;20644;-83
2022/08/19 09:54:02;;;;;;;3.90;3.33;;;;;;;;;;5090845;28;20607;-83
2022/08/19 09:56:30;;;;;;;3.47;3.17;;;;;;;;;;5094956;27;20235;-82
2022/08/19 09:58:59;;;;;;;4.80;3.88;;;;;;;;;;5094850;28;20189;-84
2022/08/19 10:01:28;;;;;;;9.98;3.92;;;;;;;;;;5084302;28;20773;-83
2022/08/19 10:03:57;;;;;;;3.83;3.10;;;;;;;;;;5085510;28;20193;-83
2022/08/19 10:06:29;;;;;;;3.35;3.05;;;;;;;;;;5078988;28;20587;-84
2022/08/19 10:08:57;;;;;;;3.53;3.00;;;;;;;;;;5066691;28;20190;-84
2022/08/19 10:11:26;;;;;;;4.65;3.30;;;;;;;;;;5098002;27;20255;-84
2022/08/19 10:13:53;;;;;;;3.40;3.10;;;;;;;;;;5097243;28;20196;-84
2022/08/19 10:16:22;;;;;;;3.38;3.08;;;;;;;;;;5060764;28;20706;-84
2022/08/19 10:18:49;;;;;;;3.15;2.95;;;;;;;;;;5055839;28;20209;-84
2022/08/19 10:21:17;;;;;;;3.35;3.05;;;;;;;;;;5088057;27;20628;-85
2022/08/19 10:23:46;;;;;;;4.70;2.78;;;;;;;;;;5069751;28;20206;-85
2022/08/19 10:26:15;;;;;;;3.10;2.80;;;;;;;;;;5081097;28;20601;-85
2022/08/19 10:28:42;;;;;;;3.15;2.80;;;;;;;;;;5098048;28;20204;-84
2022/08/19 10:31:10;;;;;;;3.45;3.15;;;;;;;;;;5094920;27;20240;-85
2022/08/19 10:33:38;;;;;;;3.20;2.60;;;;;;;;;;5094948;28;20215;-85
2022/08/19 10:36:07;;;;;;;4.25;2.70;;;;;;;;;;5094475;27;20244;-85
2022/08/19 10:38:35;;;;;;;3.00;2.70;;;;;;;;;;5094618;28;20314;-85
2022/08/19 10:41:15;;;;;;;3.38;2.85;;;;;;;;;;5073868;28;20325;-86
2022/08/19 10:43:52;;;;;;;3.95;2.90;;;;;;;;;;5080614;28;20197;-84
2022/08/19 10:46:23;;;;;;;4.10;2.97;;;;;;;;;;5067243;27;20260;-86
2022/08/19 10:48:50;;;;;;;3.08;2.70;;;;;;;;;;5071756;28;20203;-85
2022/08/19 10:54:16;;;;;;;3.13;2.60;;;;;;;;;;5044840;28;20205;-85
2022/08/19 10:56:53;;;;;;;3.28;2.78;;;;;;;;;;5053884;28;20667;-85
2022/08/19 10:59:22;;;;;;;3.72;2.78;;;;;;;;;;5054276;28;20201;-85
2022/08/19 11:01:49;;;;;;;2.83;2.63;;;;;;;;;;5053212;28;20233;-86
2022/08/19 11:04:17;;;;;;;3.30;3.00;;;;;;;;;;5053933;28;20251;-85
2022/08/19 11:06:46;;;;;;;5.13;2.83;;;;;;;;;;5053228;28;20234;-86
2022/08/19 11:09:13;;;;;;;2.90;2.60;;;;;;;;;;5054225;28;20271;-85
2022/08/19 11:11:49;;;;;;;2.88;2.67;;;;;;;;;;5053299;28;20233;-84
2022/08/19 11:14:18;;;;;;;4.82;3.00;;;;;;;;;;5073520;28;20197;-85
2022/08/19 11:16:45;;;;;;;4.03;3.10;;;;;;;;;;5073544;28;20271;-85
2022/08/19 11:19:15;;;;;;;2.90;2.60;;;;;;;;;;5079342;28;20216;-84
2022/08/19 11:21:44;;;;;;;2.75;2.50;;;;;;;;;;5073075;28;20237;-85
2022/08/19 11:24:12;;;;;;;3.60;2.92;;;;;;;;;;5073800;28;20213;-85
2022/08/19 11:26:45;;;;;;;3.65;3.30;;;;;;;;;;5072903;28;20233;-86
2022/08/19 11:29:14;;;;;;;3.67;3.00;;;;;;;;;;5073703;28;20981;-85
2022/08/19 11:31:42;;;;;;;3.78;3.10;;;;;;;;;;5072773;28;20241;-84
2022/08/19 11:34:11;;;;;;;5.07;2.83;;;;;;;;;;5076869;28;20208;-85
2022/08/19 11:36:39;;;;;;;3.20;2.90;;;;;;;;;;5090681;28;20229;-83
2022/08/19 11:39:07;;;;;;;3.42;2.97;;;;;;;;;;5059128;28;20202;-83
2022/08/19 11:41:34;;;;;;;3.83;3.45;;;;;;;;;;5055164;28;20985;-82
2022/08/19 11:44:02;;;;;;;3.35;3.13;;;;;;;;;;5062764;28;20561;-82
2022/08/19 11:46:31;;;;;;;3.40;3.10;;;;;;;;;;5054541;28;20234;-82
2022/08/19 11:49:00;;;;;;;4.22;2.95;;;;;;;;;;5074428;28;20618;-83
2022/08/19 11:51:28;;;;;;;7.88;3.28;;;;;;;;;;5073640;27;20286;-82
2022/08/19 11:53:55;;;;;;;3.40;3.10;;;;;;;;;;5059349;28;20213;-84
2022/08/19 11:56:23;;;;;;;5.93;3.08;;;;;;;;;;5061008;28;20239;-84
2022/08/19 11:58:51;;;;;;;3.40;3.10;;;;;;;;;;5061258;28;20209;-84
2022/08/19 12:01:20;;;;;;;4.35;3.35;;;;;;;;;;5052233;28;20268;-85
2022/08/19 12:03:49;;;;;;;3.40;3.20;;;;;;;;;;5052698;28;20209;-84
2022/08/19 12:06:17;;;;;;;4.32;3.50;;;;;;;;;;5052878;28;20603;-84
2022/08/19 12:08:45;;;;;;;3.80;3.50;;;;;;;;;;5064612;28;20226;-84
2022/08/19 12:11:13;;;;;;;4.22;3.92;;;;;;;;;;5052440;28;20244;-84
2022/08/19 12:13:41;;;;;;;3.88;3.58;;;;;;;;;;5052797;28;20296;-85
2022/08/19 12:16:10;;;;;;;4.47;3.88;;;;;;;;;;5051725;28;20237;-85
2022/08/19 12:18:37;;;;;;;6.60;3.83;;;;;;;;;;5052830;28;20209;-85
2022/08/19 12:21:06;;;;;;;5.28;3.78;;;;;;;;;;5052011;28;20264;-84
2022/08/19 12:23:33;;;;;;;4.50;4.10;;;;;;;;;;5052383;28;20708;-85
2022/08/19 12:26:00;;;;;;;4.28;3.88;;;;;;;;;;5051605;28;20254;-84
2022/08/19 12:28:27;;;;;;;5.38;4.25;;;;;;;;;;5052612;28;20279;-84
2022/08/19 12:30:54;;;;;;;4.85;4.45;;;;;;;;;;5051536;28;20233;-84
2022/08/19 12:33:24;;;;;;;6.68;4.55;;;;;;;;;;5052412;28;20205;-86
2022/08/19 12:35:51;;;;;;;4.93;4.47;;;;;;;;;;5051831;28;20246;-85
2022/08/19 12:38:20;;;;;;;5.15;4.75;;;;;;;;;;5052625;28;20205;-83
2022/08/19 12:40:47;;;;;;;4.88;4.47;;;;;;;;;;5052073;28;20241;-84
2022/08/19 12:43:15;;;;;;;5.15;4.53;;;;;;;;;;5053746;28;20612;-84
2022/08/19 12:45:43;;;;;;;4.63;4.32;;;;;;;;;;5054574;28;20242;-85
2022/08/19 12:48:10;;;;;;;5.00;4.15;;;;;;;;;;5076453;28;20756;-86
2022/08/19 12:50:37;;;;;;;7.80;4.68;;;;;;;;;;5081278;28;20229;-83
2022/08/19 12:53:04;;;;;;;5.57;4.80;;;;;;;;;;5083065;28;20205;-85
2022/08/19 12:55:33;;;;;;;5.15;4.70;;;;;;;;;;5079304;28;20237;-80
2022/08/19 12:58:01;;;;;;;5.38;4.88;;;;;;;;;;5076772;28;20677;-82
2022/08/19 13:00:28;;;;;;;5.55;5.13;;;;;;;;;;5076771;28;20267;-81
2022/08/19 13:02:56;;;;;;;5.75;5.30;;;;;;;;;;5065053;28;20201;-80
2022/08/19 13:05:23;;;;;;;6.15;5.65;;;;;;;;;;5078555;28;20233;-81
2022/08/19 13:07:52;;;;;;;7.10;6.40;;;;;;;;;;5062359;28;20249;-82
2022/08/19 13:10:20;;;;;;;6.18;5.68;;;;;;;;;;5057061;28;20264;-80
2022/08/19 13:12:50;;;;;;;6.55;5.63;;;;;;;;;;5056963;28;20238;-80
2022/08/19 13:15:20;;;;;;;6.53;5.93;;;;;;;;;;5061301;28;20241;-82
2022/08/19 13:17:48;;;;;;;7.30;6.60;;;;;;;;;;5061448;28;20248;-80
2022/08/19 13:20:16;;;;;;;7.38;6.28;;;;;;;;;;5067731;28;20231;-82
2022/08/19 13:22:44;;;;;;;6.93;6.30;;;;;;;;;;5073349;28;20194;-80
2022/08/19 13:25:12;;;;;;;6.60;6.00;;;;;;;;;;5061728;28;20253;-80
2022/08/19 13:27:39;;;;;;;7.07;6.15;;;;;;;;;;5078985;28;20228;-80
2022/08/19 13:33:15;;;;;;;6.68;6.18;;;;;;;;;;5073071;28;20377;-80
2022/08/19 13:35:43;;;;;;;6.35;5.82;;;;;;;;;;5077158;28;20326;-81
2022/08/19 13:38:11;;;;;;;6.22;5.63;;;;;;;;;;5073005;28;20646;-81
2022/08/19 13:40:38;;;;;;;6.50;5.82;;;;;;;;;;5072153;28;20600;-81
2022/08/19 13:43:07;;;;;;;6.78;6.18;;;;;;;;;;5072692;28;20197;-81
2022/08/19 13:45:36;;;;;;;6.05;5.60;;;;;;;;;;5062913;28;20229;-82
2022/08/19 13:48:06;;;;;;;6.22;5.68;;;;;;;;;;5063183;28;20222;-82
2022/08/19 13:50:33;;;;;;;5.80;5.35;;;;;;;;;;5072402;28;20221;-81
2022/08/19 13:53:01;;;;;;;6.00;5.50;;;;;;;;;;5074911;28;20217;-81
2022/08/19 13:55:29;;;;;;;6.55;5.82;;;;;;;;;;5076715;28;20255;-82
2022/08/19 13:57:58;;;;;;;6.40;5.80;;;;;;;;;;5075674;28;20202;-81
2022/08/19 14:00:26;;;;;;;5.60;5.20;;;;;;;;;;5081493;28;20244;-82
2022/08/19 14:02:56;;;;;;;4.97;4.35;;;;;;;;;;5081878;28;20198;-81
2022/08/19 14:05:24;;;;;;;5.25;4.85;;;;;;;;;;5081127;28;20316;-81
2022/08/19 14:07:52;;;;;;;5.40;4.90;;;;;;;;;;5068574;28;20632;-81
2022/08/19 14:10:19;;;;;;;5.13;4.60;;;;;;;;;;5060639;28;20243;-82
2022/08/19 14:12:48;;;;;;;4.90;4.50;;;;;;;;;;5060400;28;20205;-81
2022/08/19 14:15:18;;;;;;;5.05;4.65;;;;;;;;;;5079103;28;20249;-81
2022/08/19 14:17:48;;;;;;;4.97;4.57;;;;;;;;;;5075902;28;20260;-82
2022/08/19 14:20:16;;;;;;;5.30;4.90;;;;;;;;;;5085932;27;20236;-81
2022/08/19 14:22:44;;;;;;;4.88;4.50;;;;;;;;;;5099028;28;20212;-81
2022/08/19 14:25:12;;;;;;;5.30;4.80;;;;;;;;;;5069746;28;20244;-82
2022/08/19 14:27:40;;;;;;;6.07;4.22;;;;;;;;;;5059625;28;20666;-82
2022/08/19 14:30:08;;;;;;;4.75;4.35;;;;;;;;;;5065957;28;20991;-82
2022/08/19 14:32:36;;;;;;;5.18;4.60;;;;;;;;;;5074138;28;20202;-84
2022/08/19 14:35:03;;;;;;;4.82;4.43;;;;;;;;;;5085941;28;20224;-84
2022/08/19 14:37:32;;;;;;;5.32;4.82;;;;;;;;;;5085587;28;20732;-85
2022/08/19 14:39:59;;;;;;;5.15;4.75;;;;;;;;;;5078924;27;20229;-84
2022/08/19 14:42:26;;;;;;;4.47;4.18;;;;;;;;;;5094367;28;20201;-85
2022/08/19 14:44:53;;;;;;;6.65;4.32;;;;;;;;;;5093883;27;20570;-85
2022/08/19 14:47:20;;;;;;;4.82;4.18;;;;;;;;;;5094329;28;20254;-85
2022/08/19 14:49:47;;;;;;;5.00;4.50;;;;;;;;;;5094233;27;20212;-84
2022/08/19 14:52:14;;;;;;;5.47;4.05;;;;;;;;;;5094245;28;20206;-84
2022/08/19 14:54:44;;;;;;;4.88;4.35;;;;;;;;;;5093921;27;20207;-83
2022/08/19 14:57:14;;;;;;;4.55;3.80;;;;;;;;;;5084154;28;20224;-84
2022/08/19 14:59:42;;;;;;;4.20;3.90;;;;;;;;;;5087834;27;20208;-84